createdAt,value
2022-12-27T00:01:13.951Z,2.90
2022-12-27T00:03:41.147Z,2.97
2022-12-27T00:06:09.977Z,2.87
2022-12-27T00:08:36.454Z,2.83
2022-12-27T00:11:18.317Z,2.87
2022-12-27T00:13:44.768Z,2.84
2022-12-27T00:16:13.476Z,2.80
2022-12-27T00:18:40.972Z,2.74
2022-12-27T00:21:10.007Z,2.69
2022-12-27T00:23:39.006Z,2.68
2022-12-27T00:26:09.414Z,2.67
2022-12-27T00:28:35.798Z,2.65
2022-12-27T00:31:02.700Z,2.73
2022-12-27T00:33:30.687Z,2.77
2022-12-27T00:35:59.225Z,2.75
2022-12-27T00:38:26.123Z,2.74
2022-12-27T00:40:52.653Z,2.74
2022-12-27T00:43:19.256Z,2.82
2022-12-27T00:45:46.018Z,2.88
2022-12-27T00:48:12.755Z,2.88
2022-12-27T00:50:40.869Z,2.95
2022-12-27T00:53:08.100Z,3.02
2022-12-27T00:55:35.172Z,3.02
2022-12-27T00:58:02.042Z,2.99
2022-12-27T01:00:28.357Z,2.96
2022-12-27T01:02:54.941Z,2.94
2022-12-27T01:05:21.907Z,2.95
2022-12-27T01:07:48.625Z,3.03
2022-12-27T01:10:15.271Z,3.11
2022-12-27T01:12:41.678Z,3.22
2022-12-27T01:15:09.777Z,3.34
2022-12-27T01:17:36.255Z,3.42
2022-12-27T01:20:03.733Z,3.47
2022-12-27T01:22:30.143Z,3.53
2022-12-27T01:24:56.610Z,3.55
2022-12-27T01:27:23.022Z,3.55
2022-12-27T01:29:49.394Z,3.54
2022-12-27T01:32:15.754Z,3.43
2022-12-27T01:34:42.175Z,3.31
2022-12-27T01:37:08.520Z,3.20
2022-12-27T01:39:34.967Z,3.16
2022-12-27T01:42:19.873Z,3.10
2022-12-27T01:44:55.143Z,3.15
2022-12-27T01:47:44.337Z,3.18
2022-12-27T01:50:32.298Z,3.21
2022-12-27T01:53:08.290Z,3.28
2022-12-27T01:55:44.397Z,3.33
2022-12-27T01:58:17.661Z,3.40
2022-12-27T02:00:46.843Z,3.35
2022-12-27T02:03:19.923Z,3.37
2022-12-27T02:05:46.506Z,3.44
2022-12-27T02:08:28.771Z,3.52
2022-12-27T02:10:56.192Z,3.53
2022-12-27T02:13:23.403Z,3.51
2022-12-27T02:15:50.018Z,3.50
2022-12-27T02:18:16.919Z,3.52
2022-12-27T02:21:21.919Z,3.47
2022-12-27T02:24:13.447Z,3.47
2022-12-27T02:26:45.207Z,3.44
2022-12-27T02:29:52.072Z,3.45
2022-12-27T02:32:38.631Z,3.44
2022-12-27T02:35:23.500Z,3.39
2022-12-27T02:38:05.236Z,3.41
2022-12-27T02:40:51.795Z,3.42
2022-12-27T02:43:37.041Z,3.44
2022-12-27T02:46:29.836Z,3.46
2022-12-27T02:49:17.842Z,3.46
2022-12-27T02:52:14.881Z,3.48
2022-12-27T02:54:47.149Z,3.49
2022-12-27T02:57:35.156Z,3.45
2022-12-27T03:00:33.781Z,3.43
2022-12-27T03:03:21.015Z,3.42
2022-12-27T03:06:34.823Z,3.39
2022-12-27T03:10:00.362Z,3.35
2022-12-27T03:12:48.180Z,3.31
2022-12-27T03:15:59.906Z,3.22
2022-12-27T03:18:44.885Z,3.15
2022-12-27T03:21:35.018Z,3.14
2022-12-27T03:24:20.293Z,3.10
2022-12-27T03:26:50.036Z,3.02
2022-12-27T03:29:38.437Z,2.94
2022-12-27T03:32:27.740Z,2.87
2022-12-27T03:35:01.626Z,2.89
2022-12-27T03:37:55.595Z,2.85
2022-12-27T03:40:34.626Z,2.89
2022-12-27T03:43:10.925Z,2.89
2022-12-27T03:46:06.245Z,2.99
2022-12-27T03:48:43.833Z,3.08
2022-12-27T03:51:11.471Z,3.08
2022-12-27T03:53:42.006Z,3.09
2022-12-27T03:56:10.017Z,3.13
2022-12-27T03:58:36.529Z,3.19
2022-12-27T04:01:03.081Z,3.23
2022-12-27T04:03:29.512Z,3.30
2022-12-27T04:05:55.926Z,3.31
2022-12-27T04:08:40.768Z,3.32
2022-12-27T04:11:25.429Z,3.27
2022-12-27T04:14:10.326Z,3.20
2022-12-27T04:16:55.099Z,3.19
2022-12-27T04:19:39.868Z,3.14
2022-12-27T04:22:24.819Z,3.08
2022-12-27T04:25:09.635Z,2.99
2022-12-27T04:27:54.650Z,2.98
2022-12-27T04:30:39.763Z,2.96
2022-12-27T04:33:24.553Z,2.92
2022-12-27T04:35:50.913Z,2.95
2022-12-27T04:38:20.050Z,2.94
2022-12-27T04:41:05.081Z,2.87
2022-12-27T04:43:49.856Z,2.89
2022-12-27T04:46:41.820Z,2.84
2022-12-27T04:49:33.285Z,2.79
2022-12-27T04:52:18.014Z,2.73
2022-12-27T04:54:59.473Z,2.70
2022-12-27T04:57:27.605Z,2.67
2022-12-27T05:00:12.920Z,2.65
2022-12-27T05:02:39.672Z,2.68
2022-12-27T05:05:07.627Z,2.66
2022-12-27T05:07:52.784Z,2.69
2022-12-27T05:10:37.554Z,2.75
2022-12-27T05:13:23.339Z,2.74
2022-12-27T05:15:49.833Z,2.80
2022-12-27T05:18:16.568Z,2.85
2022-12-27T05:20:42.961Z,2.82
2022-12-27T05:23:27.847Z,2.79
2022-12-27T05:25:54.266Z,2.76
2022-12-27T05:28:20.738Z,2.79
2022-12-27T05:30:47.178Z,2.77
2022-12-27T05:33:13.916Z,2.77
2022-12-27T05:35:40.976Z,2.81
2022-12-27T05:38:07.709Z,2.81
2022-12-27T05:40:34.601Z,2.81
2022-12-27T05:43:02.115Z,2.83
2022-12-27T05:45:29.643Z,2.84
2022-12-27T05:47:56.548Z,2.89
2022-12-27T05:50:22.949Z,2.94
2022-12-27T05:52:49.437Z,2.94
2022-12-27T05:55:16.057Z,2.97
2022-12-27T05:57:42.543Z,2.91
2022-12-27T06:00:11.044Z,2.94
2022-12-27T06:02:39.324Z,2.90
2022-12-27T06:05:06.084Z,2.91
2022-12-27T06:07:32.580Z,2.90
2022-12-27T06:09:58.907Z,2.92
2022-12-27T06:12:25.293Z,2.95
2022-12-27T06:14:51.633Z,2.90
2022-12-27T06:17:17.975Z,2.87
2022-12-27T06:19:44.346Z,2.82
2022-12-27T06:22:10.696Z,2.83
2022-12-27T06:24:37.027Z,2.82
2022-12-27T06:27:03.527Z,2.81
2022-12-27T06:29:30.045Z,2.86
2022-12-27T06:31:56.490Z,2.88
2022-12-27T06:34:22.856Z,2.90
2022-12-27T06:36:51.258Z,2.88
2022-12-27T06:39:19.090Z,2.85
2022-12-27T06:41:46.146Z,2.74
2022-12-27T06:44:13.120Z,2.71
2022-12-27T06:46:39.586Z,2.62
2022-12-27T06:49:06.030Z,2.56
2022-12-27T06:51:33.823Z,2.48
2022-12-27T06:54:00.233Z,2.42
2022-12-27T06:56:26.609Z,2.39
2022-12-27T06:58:53.840Z,2.35
2022-12-27T07:01:25.709Z,2.36
2022-12-27T07:03:58.992Z,2.38
2022-12-27T07:06:27.280Z,2.32
2022-12-27T07:08:54.373Z,2.24
2022-12-27T07:11:22.558Z,2.18
2022-12-27T07:13:52.169Z,2.15
2022-12-27T07:16:21.609Z,2.19
2022-12-27T07:18:49.967Z,2.21
2022-12-27T07:21:20.402Z,2.27
2022-12-27T07:23:47.243Z,2.33
2022-12-27T07:26:22.101Z,2.34
2022-12-27T07:28:49.340Z,2.38
2022-12-27T07:31:20.907Z,2.41
2022-12-27T07:33:47.449Z,2.42
2022-12-27T07:36:17.151Z,2.49
2022-12-27T07:38:44.214Z,2.43
2022-12-27T07:41:12.234Z,2.42
2022-12-27T07:43:38.837Z,2.42
2022-12-27T07:46:06.417Z,2.43
2022-12-27T07:48:33.117Z,2.42
2022-12-27T07:50:59.706Z,2.42
2022-12-27T07:53:26.056Z,2.45
2022-12-27T07:55:53.738Z,2.50
2022-12-27T07:58:21.059Z,2.58
2022-12-27T08:00:49.588Z,2.63
2022-12-27T08:03:16.520Z,2.66
2022-12-27T08:05:52.409Z,2.69
2022-12-27T08:08:22.720Z,2.71
2022-12-27T08:10:49.097Z,2.70
2022-12-27T08:13:15.437Z,2.77
2022-12-27T08:15:42.851Z,2.77
2022-12-27T08:18:10.181Z,2.79
2022-12-27T08:20:36.798Z,2.81
2022-12-27T08:23:03.293Z,2.84
2022-12-27T08:25:29.692Z,2.86
2022-12-27T08:28:06.977Z,2.90
2022-12-27T08:30:33.504Z,2.94
2022-12-27T08:33:04.241Z,2.99
2022-12-27T08:35:52.274Z,3.02
2022-12-27T08:38:17.492Z,3.06
2022-12-27T08:40:44.797Z,3.07
2022-12-27T08:43:12.045Z,3.12
2022-12-27T08:45:39.400Z,3.17
2022-12-27T08:48:06.903Z,3.24
2022-12-27T08:50:33.945Z,3.30
2022-12-27T08:53:02.004Z,3.35
2022-12-27T08:55:29.260Z,3.39
2022-12-27T08:58:15.670Z,3.47
2022-12-27T09:00:42.649Z,3.58
2022-12-27T09:03:09.566Z,3.66
2022-12-27T09:05:41.483Z,3.69
2022-12-27T09:08:08.380Z,3.70
2022-12-27T09:10:34.797Z,3.73
2022-12-27T09:13:01.172Z,3.88
2022-12-27T09:15:27.602Z,4.16
2022-12-27T09:17:54.009Z,4.23
2022-12-27T09:20:20.458Z,4.32
2022-12-27T09:22:46.927Z,4.45
2022-12-27T09:25:13.385Z,4.39
2022-12-27T09:27:39.903Z,4.42
2022-12-27T09:30:08.182Z,4.79
2022-12-27T09:32:34.711Z,5.21
2022-12-27T09:35:02.981Z,5.81
2022-12-27T09:37:29.369Z,6.38
2022-12-27T09:39:56.673Z,6.69
2022-12-27T09:42:56.187Z,7.06
2022-12-27T09:45:38.274Z,6.97
2022-12-27T09:48:12.412Z,7.02
2022-12-27T09:50:54.681Z,7.49
2022-12-27T09:53:31.834Z,7.56
2022-12-27T09:55:58.937Z,8.09
2022-12-27T09:58:42.207Z,7.78
2022-12-27T10:01:40.349Z,7.68
2022-12-27T10:04:13.022Z,7.34
2022-12-27T10:07:09.572Z,7.07
2022-12-27T10:09:54.146Z,7.40
2022-12-27T10:12:38.316Z,7.05
2022-12-27T10:15:16.896Z,7.19
2022-12-27T10:17:53.066Z,7.41
2022-12-27T10:20:34.999Z,7.10
2022-12-27T10:23:06.660Z,7.74
2022-12-27T10:25:34.885Z,8.13
2022-12-27T10:28:12.051Z,8.05
2022-12-27T10:30:40.195Z,7.44
2022-12-27T10:33:16.264Z,6.97
2022-12-27T10:35:42.734Z,6.87
2022-12-27T10:38:11.330Z,6.70
2022-12-27T10:40:45.730Z,7.19
2022-12-27T10:43:18.790Z,8.28
2022-12-27T10:45:45.469Z,8.68
2022-12-27T10:48:36.407Z,7.35
2022-12-27T10:51:14.153Z,6.42
2022-12-27T10:53:46.533Z,5.82
2022-12-27T10:56:14.578Z,5.59
2022-12-27T10:58:56.437Z,5.56
2022-12-27T11:01:28.544Z,5.55
2022-12-27T11:04:21.209Z,5.53
2022-12-27T11:07:11.592Z,5.42
2022-12-27T11:09:50.402Z,5.42
2022-12-27T11:12:24.884Z,5.45
2022-12-27T11:14:59.318Z,5.53
2022-12-27T11:17:50.818Z,5.78
2022-12-27T11:20:26.392Z,6.07
2022-12-27T11:22:58.764Z,7.38
2022-12-27T11:25:27.730Z,8.24
2022-12-27T11:27:59.422Z,8.62
2022-12-27T11:30:31.217Z,8.65
2022-12-27T11:33:06.112Z,8.75
2022-12-27T11:35:36.939Z,8.47
2022-12-27T11:38:03.550Z,8.20
2022-12-27T11:40:34.486Z,8.13
2022-12-27T11:43:10.467Z,8.30
2022-12-27T11:45:42.204Z,8.40
2022-12-27T11:48:40.558Z,8.19
2022-12-27T11:51:09.922Z,8.40
2022-12-27T11:54:07.411Z,8.23
2022-12-27T11:56:45.124Z,8.28
2022-12-27T11:59:25.693Z,8.37
2022-12-27T12:02:18.486Z,7.91
2022-12-27T12:05:39.973Z,7.30
2022-12-27T12:08:18.396Z,7.16
2022-12-27T12:11:21.698Z,7.73
2022-12-27T12:14:15.802Z,7.48
2022-12-27T12:17:08.042Z,6.93
2022-12-27T12:20:06.894Z,6.76
2022-12-27T12:22:57.387Z,6.59
2022-12-27T12:25:51.030Z,6.52
2022-12-27T12:29:00.130Z,6.59
2022-12-27T12:31:45.285Z,6.87
2022-12-27T12:34:43.596Z,7.28
2022-12-27T12:37:47.125Z,7.29
2022-12-27T12:40:22.387Z,7.67
2022-12-27T12:43:10.576Z,8.40
2022-12-27T12:45:47.486Z,8.35
2022-12-27T12:48:47.996Z,7.89
2022-12-27T12:51:35.323Z,7.46
2022-12-27T12:54:07.507Z,7.19
2022-12-27T12:56:59.043Z,7.05
2022-12-27T12:59:34.507Z,6.96
2022-12-27T13:02:25.592Z,6.85
2022-12-27T13:05:11.507Z,6.76
2022-12-27T13:07:49.308Z,6.77
2022-12-27T13:10:57.882Z,6.79
2022-12-27T13:13:44.444Z,6.95
2022-12-27T13:16:34.650Z,7.49
2022-12-27T13:19:20.964Z,7.25
2022-12-27T13:22:12.170Z,6.91
2022-12-27T13:25:00.597Z,6.87
2022-12-27T13:27:54.358Z,6.78
2022-12-27T13:30:33.959Z,6.73
2022-12-27T13:33:27.875Z,6.73
2022-12-27T13:35:54.327Z,6.66
2022-12-27T13:38:58.266Z,6.61
2022-12-27T13:41:49.721Z,6.62
2022-12-27T13:44:19.091Z,6.66
2022-12-27T13:46:51.448Z,6.73
2022-12-27T13:49:43.125Z,6.79
2022-12-27T13:52:46.683Z,6.87
2022-12-27T13:55:26.736Z,6.94
2022-12-27T13:58:13.844Z,6.92
2022-12-27T14:00:51.266Z,6.87
2022-12-27T14:03:59.762Z,6.87
2022-12-27T14:07:03.894Z,6.82
2022-12-27T14:10:00.349Z,6.74
2022-12-27T14:12:53.892Z,6.69
2022-12-27T14:15:42.352Z,6.65
2022-12-27T14:18:47.083Z,6.57
2022-12-27T14:21:45.454Z,6.52
2022-12-27T14:24:40.180Z,6.46
2022-12-27T14:27:27.607Z,6.44
2022-12-27T14:30:19.023Z,6.41
2022-12-27T14:33:03.696Z,6.41
2022-12-27T14:35:54.851Z,6.38
2022-12-27T14:38:45.679Z,6.35
2022-12-27T14:41:49.590Z,6.34
2022-12-27T14:44:31.046Z,6.33
2022-12-27T14:47:18.654Z,6.31
2022-12-27T14:50:30.688Z,6.31
2022-12-27T14:53:21.351Z,6.30
2022-12-27T14:56:08.619Z,6.28
2022-12-27T14:58:49.154Z,6.25
2022-12-27T15:01:28.377Z,6.24
2022-12-27T15:04:23.258Z,6.21
2022-12-27T15:07:20.748Z,6.15
2022-12-27T15:10:07.243Z,6.14
2022-12-27T15:12:45.220Z,6.11
2022-12-27T15:15:22.202Z,6.08
2022-12-27T15:18:17.282Z,6.07
2022-12-27T15:21:16.210Z,6.05
2022-12-27T15:23:52.973Z,6.06
2022-12-27T15:26:40.337Z,6.00
2022-12-27T15:29:29.681Z,6.00
2022-12-27T15:32:16.583Z,6.01
2022-12-27T15:34:58.390Z,5.97
2022-12-27T15:38:04.180Z,5.95
2022-12-27T15:40:33.271Z,5.96
2022-12-27T15:43:02.505Z,5.95
2022-12-27T15:45:53.991Z,5.96
2022-12-27T15:48:35.588Z,5.96
2022-12-27T15:51:10.715Z,5.96
2022-12-27T15:53:42.721Z,5.97
2022-12-27T15:56:43.500Z,5.96
2022-12-27T15:59:37.483Z,5.93
2022-12-27T16:02:33.280Z,5.88
2022-12-27T16:05:07.459Z,5.90
2022-12-27T16:07:38.517Z,5.90
2022-12-27T16:10:47.691Z,5.90
2022-12-27T16:13:21.612Z,5.94
2022-12-27T16:15:52.433Z,5.94
2022-12-27T16:18:18.779Z,5.92
2022-12-27T16:20:56.650Z,5.95
2022-12-27T16:23:36.117Z,5.94
2022-12-27T16:26:15.838Z,5.95
2022-12-27T16:28:51.099Z,5.97
2022-12-27T16:31:22.125Z,5.97
2022-12-27T16:33:50.033Z,5.98
2022-12-27T16:36:22.965Z,6.02
2022-12-27T16:38:55.261Z,6.04
2022-12-27T16:41:31.339Z,6.04
2022-12-27T16:44:00.645Z,6.07
2022-12-27T16:46:48.015Z,6.08
2022-12-27T16:49:33.037Z,6.14
2022-12-27T16:52:36.710Z,6.17
2022-12-27T16:55:12.072Z,6.17
2022-12-27T16:57:42.817Z,6.17
2022-12-27T17:00:33.673Z,6.16
2022-12-27T17:03:20.857Z,6.18
2022-12-27T17:06:30.179Z,6.22
2022-12-27T17:08:39.175Z,6.25
2022-12-27T17:11:14.818Z,6.25
2022-12-27T17:13:52.838Z,6.29
2022-12-27T17:16:25.268Z,6.30
2022-12-27T17:19:06.146Z,6.30
2022-12-27T17:21:41.834Z,6.24
2022-12-27T17:24:12.635Z,6.21
2022-12-27T17:27:03.439Z,6.18
2022-12-27T17:29:38.954Z,6.20
2022-12-27T17:32:22.445Z,6.20
2022-12-27T17:35:07.497Z,6.18
2022-12-27T17:37:56.407Z,6.18
2022-12-27T17:40:48.280Z,6.17
2022-12-27T17:43:53.990Z,6.23
2022-12-27T17:46:29.780Z,6.26
2022-12-27T17:48:57.810Z,6.31
2022-12-27T17:51:27.470Z,6.32
2022-12-27T17:54:14.438Z,6.34
2022-12-27T17:57:14.045Z,6.33
2022-12-27T17:59:46.193Z,6.30
2022-12-27T18:02:19.227Z,6.23
2022-12-27T18:04:50.102Z,6.15
2022-12-27T18:07:22.960Z,6.08
2022-12-27T18:09:56.817Z,6.02
2022-12-27T18:12:40.865Z,6.04
2022-12-27T18:15:19.864Z,6.01
2022-12-27T18:17:52.086Z,5.93
2022-12-27T18:20:27.903Z,5.90
2022-12-27T18:23:00.132Z,5.90
2022-12-27T18:25:28.047Z,5.89
2022-12-27T18:28:03.497Z,5.86
2022-12-27T18:30:37.632Z,5.80
2022-12-27T18:33:06.642Z,5.84
2022-12-27T18:35:34.634Z,5.91
2022-12-27T18:38:02.063Z,5.93
2022-12-27T18:40:28.584Z,5.91
2022-12-27T18:42:56.386Z,5.93
2022-12-27T18:45:26.678Z,5.89
2022-12-27T18:47:55.689Z,5.87
2022-12-27T18:50:29.558Z,5.85
2022-12-27T18:53:07.357Z,5.78
2022-12-27T18:55:34.892Z,5.71
2022-12-27T18:58:20.527Z,5.71
2022-12-27T19:00:50.295Z,5.78
2022-12-27T19:03:19.988Z,5.69
2022-12-27T19:06:06.167Z,5.68
2022-12-27T19:08:35.782Z,5.70
2022-12-27T19:11:02.673Z,5.66
2022-12-27T19:13:40.006Z,5.66
2022-12-27T19:16:06.787Z,5.69
2022-12-27T19:18:38.247Z,5.64
2022-12-27T19:21:06.142Z,5.52
2022-12-27T19:23:37.745Z,5.56
2022-12-27T19:26:15.198Z,5.52
2022-12-27T19:28:43.971Z,5.48
2022-12-27T19:31:21.376Z,5.47
2022-12-27T19:34:13.276Z,5.46
2022-12-27T19:36:42.143Z,5.43
2022-12-27T19:39:19.771Z,5.44
2022-12-27T19:41:47.088Z,5.44
2022-12-27T19:44:13.843Z,5.43
2022-12-27T19:46:40.249Z,5.48
2022-12-27T19:49:40.149Z,5.53
2022-12-27T19:51:55.699Z,5.52
2022-12-27T19:54:24.767Z,5.50
2022-12-27T19:56:51.344Z,5.46
2022-12-27T19:59:21.667Z,5.50
2022-12-27T20:01:48.251Z,5.46
2022-12-27T20:04:16.399Z,5.51
2022-12-27T20:06:44.735Z,5.58
2022-12-27T20:09:17.486Z,5.63
2022-12-27T20:11:44.003Z,5.67
2022-12-27T20:14:10.695Z,5.70
2022-12-27T20:16:37.217Z,5.75
2022-12-27T20:19:03.625Z,5.73
2022-12-27T20:21:30.068Z,5.75
2022-12-27T20:23:56.484Z,5.67
2022-12-27T20:26:25.105Z,5.62
2022-12-27T20:28:52.662Z,5.65
2022-12-27T20:31:21.772Z,5.68
2022-12-27T20:33:52.680Z,5.69
2022-12-27T20:36:19.131Z,5.72
2022-12-27T20:38:45.515Z,5.71
2022-12-27T20:41:15.348Z,5.69
2022-12-27T20:43:42.601Z,5.74
2022-12-27T20:46:15.101Z,5.77
2022-12-27T20:48:43.408Z,5.75
2022-12-27T20:51:12.930Z,5.80
2022-12-27T20:53:39.566Z,5.77
2022-12-27T20:56:08.864Z,5.75
2022-12-27T20:58:35.475Z,5.75
2022-12-27T21:01:23.311Z,5.77
2022-12-27T21:03:49.920Z,5.76
2022-12-27T21:06:19.334Z,5.76
2022-12-27T21:08:50.511Z,5.76
2022-12-27T21:11:26.911Z,5.75
2022-12-27T21:13:53.363Z,5.76
2022-12-27T21:16:22.771Z,5.72
2022-12-27T21:18:49.829Z,5.73
2022-12-27T21:21:27.363Z,5.77
2022-12-27T21:23:54.780Z,5.81
2022-12-27T21:26:24.804Z,5.86
2022-12-27T21:28:51.598Z,5.88
2022-12-27T21:31:18.706Z,5.88
2022-12-27T21:33:45.877Z,5.87
2022-12-27T21:36:14.803Z,5.87
2022-12-27T21:38:41.362Z,5.87
2022-12-27T21:41:14.485Z,5.83
2022-12-27T21:43:42.320Z,5.82
2022-12-27T21:46:20.862Z,5.81
2022-12-27T21:48:47.957Z,5.85
2022-12-27T21:51:17.564Z,5.87
2022-12-27T21:53:44.997Z,5.83
2022-12-27T21:56:13.112Z,5.83
2022-12-27T21:58:41.008Z,5.80
2022-12-27T22:01:10.554Z,5.79
2022-12-27T22:03:39.313Z,5.77
2022-12-27T22:06:20.293Z,5.76
2022-12-27T22:08:49.371Z,5.76
2022-12-27T22:11:17.220Z,5.76
2022-12-27T22:13:44.010Z,5.75
2022-12-27T22:16:14.601Z,5.76
2022-12-27T22:18:42.732Z,5.74
2022-12-27T22:21:11.392Z,5.71
2022-12-27T22:23:41.874Z,5.70
2022-12-27T22:26:13.908Z,5.68
2022-12-27T22:28:41.141Z,5.66
2022-12-27T22:31:09.562Z,5.63
2022-12-27T22:33:36.771Z,5.49
2022-12-27T22:36:11.617Z,5.36
2022-12-27T22:38:38.249Z,5.27
2022-12-27T22:41:12.114Z,5.21
2022-12-27T22:43:40.033Z,5.18
2022-12-27T22:46:12.246Z,5.22
2022-12-27T22:48:39.955Z,5.16
2022-12-27T22:51:13.001Z,5.11
2022-12-27T22:53:39.893Z,5.06
2022-12-27T22:56:16.488Z,4.98
2022-12-27T22:58:43.635Z,4.95
2022-12-27T23:01:22.304Z,4.89
2022-12-27T23:03:49.017Z,4.87
2022-12-27T23:06:16.471Z,4.87
2022-12-27T23:08:43.674Z,4.84
2022-12-27T23:11:16.142Z,4.84
2022-12-27T23:13:43.158Z,4.86
2022-12-27T23:16:10.133Z,4.88
2022-12-27T23:18:36.786Z,4.86
2022-12-27T23:21:20.867Z,4.86
2022-12-27T23:23:51.169Z,4.86
2022-12-27T23:26:19.826Z,4.87
2022-12-27T23:28:47.543Z,4.88
2022-12-27T23:31:14.583Z,4.91
2022-12-27T23:33:42.579Z,4.90
2022-12-27T23:36:09.720Z,4.88
2022-12-27T23:38:36.271Z,4.87
2022-12-27T23:41:05.860Z,4.85
2022-12-27T23:43:51.726Z,4.88
2022-12-27T23:46:39.244Z,4.90
2022-12-27T23:49:05.720Z,4.90
2022-12-27T23:51:32.335Z,4.90
2022-12-27T23:53:58.887Z,4.92
2022-12-27T23:56:28.434Z,4.91
2022-12-27T23:58:56.624Z,4.90
